Time;durP1;ratioP1;P1;durP2;ratioP2;P2;SDS_P1;SDS_P2;PMS_P1;PMS_P2;Temp;Humidity;BMP_temperature;BMP_pressure;BME280_temperature;BME280_humidity;BME280_pressure;Samples;Min_cycle;Max_cycle;Signal;HPM_P1;HPM_P2
2022/03/22 00:01:10;;;;;;;21.23;13.60;;;6.00;99.90;;;;;;4918080;29;20945;-43
2022/03/22 00:03:36;;;;;;;19.87;13.50;;;6.00;99.90;;;;;;4916755;29;20307;-45
2022/03/22 00:06:02;;;;;;;25.77;13.90;;;6.00;99.90;;;;;;4917189;29;20502;-44
2022/03/22 00:08:27;;;;;;;23.47;14.80;;;6.00;99.90;;;;;;4917334;29;20184;-44
2022/03/22 00:10:53;;;;;;;21.87;14.10;;;6.00;99.90;;;;;;4917092;29;20197;-44
2022/03/22 00:13:19;;;;;;;25.10;14.67;;;6.00;99.90;;;;;;4917023;29;20270;-43
2022/03/22 00:15:44;;;;;;;23.73;14.60;;;6.00;99.90;;;;;;4916503;29;20195;-43
2022/03/22 00:18:10;;;;;;;23.53;14.50;;;6.00;99.90;;;;;;4916988;29;20199;-45
2022/03/22 00:20:36;;;;;;;22.83;13.73;;;5.90;99.90;;;;;;4916723;29;20209;-44
2022/03/22 00:23:01;;;;;;;22.17;13.60;;;5.90;99.90;;;;;;4916396;29;20255;-44
2022/03/22 00:25:27;;;;;;;24.97;13.53;;;5.90;99.90;;;;;;4916674;29;20188;-44
2022/03/22 00:27:57;;;;;;;22.73;14.10;;;6.00;99.90;;;;;;4916657;29;20274;-45
2022/03/22 00:30:26;;;;;;;23.30;13.27;;;6.00;99.90;;;;;;4914317;29;20435;-44
2022/03/22 00:32:54;;;;;;;19.70;12.27;;;5.90;99.90;;;;;;4916257;29;20478;-44
2022/03/22 00:35:32;;;;;;;20.60;13.77;;;5.90;99.90;;;;;;4916202;29;20476;-44
2022/03/22 00:37:59;;;;;;;24.63;14.10;;;5.90;99.90;;;;;;4916418;29;20490;-44
2022/03/22 00:40:26;;;;;;;21.73;13.60;;;5.90;99.90;;;;;;4916638;29;20944;-45
2022/03/22 00:42:53;;;;;;;26.00;13.80;;;5.90;99.90;;;;;;4916026;29;20467;-44
2022/03/22 00:45:24;;;;;;;20.73;13.70;;;5.80;99.90;;;;;;4915874;29;20804;-44
2022/03/22 00:47:51;;;;;;;20.73;13.27;;;5.80;99.90;;;;;;4916251;29;20416;-44
2022/03/22 00:50:20;;;;;;;19.63;13.07;;;5.80;99.90;;;;;;4916611;29;20435;-49
2022/03/22 00:52:46;;;;;;;21.90;13.70;;;5.90;99.90;;;;;;4916170;29;20826;-49
2022/03/22 00:55:13;;;;;;;20.07;13.63;;;5.90;99.90;;;;;;4916559;29;20454;-48
2022/03/22 00:57:40;;;;;;;22.50;13.80;;;5.90;99.90;;;;;;4915881;29;20602;-48
2022/03/22 01:00:11;;;;;;;20.30;13.20;;;5.80;99.90;;;;;;4902328;29;20435;-48
2022/03/22 01:02:40;;;;;;;19.50;12.93;;;5.80;99.90;;;;;;4915534;29;20783;-49
2022/03/22 01:05:16;;;;;;;22.80;14.27;;;5.80;99.90;;;;;;4916216;29;20535;-48
2022/03/22 01:07:42;;;;;;;19.90;12.97;;;5.80;99.90;;;;;;4915968;29;20427;-48
2022/03/22 01:10:10;;;;;;;21.53;13.30;;;5.80;99.90;;;;;;4916316;29;21126;-48
2022/03/22 01:12:38;;;;;;;22.00;13.97;;;5.70;99.90;;;;;;4915687;29;20438;-49
2022/03/22 01:15:06;;;;;;;20.77;13.43;;;5.70;99.90;;;;;;4916032;29;20499;-49
2022/03/22 01:17:33;;;;;;;19.43;13.67;;;5.70;99.90;;;;;;4915783;29;20514;-49
2022/03/22 01:19:59;;;;;;;21.10;12.80;;;5.60;99.90;;;;;;4915992;29;20439;-48
2022/03/22 01:22:25;;;;;;;21.00;13.70;;;5.60;99.90;;;;;;4915542;29;20532;-48
2022/03/22 01:24:52;;;;;;;23.00;14.27;;;5.70;99.90;;;;;;4915634;29;20215;-48
2022/03/22 01:27:20;;;;;;;21.70;13.67;;;5.70;99.90;;;;;;4915524;29;20294;-48
2022/03/22 01:29:46;;;;;;;21.77;13.63;;;5.80;99.90;;;;;;4915133;29;20430;-48
2022/03/22 01:32:12;;;;;;;23.77;13.50;;;5.80;99.90;;;;;;4915708;29;20442;-50
2022/03/22 01:34:37;;;;;;;28.63;14.93;;;5.80;99.90;;;;;;4915091;29;21296;-49
2022/03/22 01:37:04;;;;;;;23.70;14.00;;;5.80;99.90;;;;;;4914683;29;20206;-48
2022/03/22 01:39:29;;;;;;;23.03;13.47;;;5.70;99.90;;;;;;4915515;29;20673;-48
2022/03/22 01:41:55;;;;;;;20.70;13.30;;;5.70;99.90;;;;;;4915361;29;20443;-49
2022/03/22 01:44:21;;;;;;;19.50;13.10;;;5.70;99.90;;;;;;4914683;29;20799;-48
2022/03/22 01:46:49;;;;;;;22.27;14.13;;;5.70;99.90;;;;;;4914971;29;20234;-48
2022/03/22 01:49:15;;;;;;;23.50;14.23;;;5.60;99.90;;;;;;4915182;29;20475;-48
2022/03/22 01:51:42;;;;;;;22.23;13.07;;;5.60;99.90;;;;;;4915416;29;20921;-48
2022/03/22 01:54:08;;;;;;;26.40;13.87;;;5.60;99.90;;;;;;4914735;29;20435;-44
2022/03/22 01:56:36;;;;;;;26.90;13.87;;;5.60;99.90;;;;;;4914718;29;20489;-44
2022/03/22 01:59:01;;;;;;;22.43;14.27;;;5.50;99.90;;;;;;4915198;29;20446;-44
2022/03/22 02:06:57;;;;;;;18.90;12.97;;;5.60;99.90;;;;;;4914475;29;20430;-44
2022/03/22 02:09:23;;;;;;;22.33;14.83;;;5.50;99.90;;;;;;4911919;29;20514;-43
2022/03/22 02:11:49;;;;;;;22.90;14.60;;;5.50;99.90;;;;;;4914744;29;20894;-43
2022/03/22 02:14:14;;;;;;;21.60;14.50;;;5.50;99.90;;;;;;4915072;29;20530;-44
2022/03/22 02:16:40;;;;;;;22.30;13.40;;;5.50;99.90;;;;;;4913498;29;20199;-44
2022/03/22 02:19:08;;;;;;;26.23;15.33;;;5.50;99.90;;;;;;4915084;29;20222;-44
2022/03/22 02:21:39;;;;;;;20.97;13.50;;;5.50;99.90;;;;;;4914880;29;20713;-44
2022/03/22 02:24:05;;;;;;;20.33;13.67;;;5.50;99.90;;;;;;4914600;29;20474;-44
2022/03/22 02:26:31;;;;;;;19.57;13.37;;;5.40;99.90;;;;;;4913964;29;20527;-44
2022/03/22 02:28:56;;;;;;;23.50;14.33;;;5.40;99.90;;;;;;4914936;29;20510;-43
2022/03/22 02:31:23;;;;;;;23.10;14.00;;;5.40;99.90;;;;;;4903209;29;20205;-44
2022/03/22 02:33:49;;;;;;;26.70;14.80;;;5.30;99.90;;;;;;4914303;29;20199;-43
2022/03/22 02:36:15;;;;;;;24.90;15.60;;;5.40;99.90;;;;;;4913986;29;20486;-44
2022/03/22 02:38:41;;;;;;;23.37;14.60;;;5.30;99.90;;;;;;4915208;29;20546;-44
2022/03/22 02:41:07;;;;;;;23.50;14.43;;;5.30;99.90;;;;;;4914392;29;20187;-44
2022/03/22 02:43:34;;;;;;;23.30;14.90;;;5.30;99.90;;;;;;4914727;29;20478;-43
2022/03/22 02:45:59;;;;;;;22.03;14.23;;;5.30;99.90;;;;;;4913609;29;20474;-44
2022/03/22 02:48:26;;;;;;;24.37;15.53;;;5.20;99.90;;;;;;4914469;29;20482;-49
2022/03/22 02:50:52;;;;;;;26.60;15.10;;;5.20;99.90;;;;;;4914120;29;20682;-48
2022/03/22 02:53:18;;;;;;;26.50;15.90;;;5.10;99.90;;;;;;4914578;29;20530;-49
2022/03/22 02:55:43;;;;;;;26.40;14.53;;;5.10;99.90;;;;;;4913759;29;20203;-47
2022/03/22 02:58:09;;;;;;;29.77;15.50;;;5.10;99.90;;;;;;4914075;29;20655;-48
2022/03/22 03:00:37;;;;;;;21.73;13.67;;;5.00;99.90;;;;;;4914244;29;20202;-48
2022/03/22 03:03:04;;;;;;;24.80;14.40;;;5.00;99.90;;;;;;4914351;29;20215;-49
2022/03/22 03:05:30;;;;;;;25.83;14.77;;;4.90;99.90;;;;;;4914161;29;20467;-49
2022/03/22 03:07:56;;;;;;;25.70;16.50;;;4.90;99.90;;;;;;4913733;29;20522;-48
2022/03/22 03:10:21;;;;;;;26.30;15.60;;;4.90;99.90;;;;;;4914409;29;20227;-48
2022/03/22 03:12:47;;;;;;;25.37;14.00;;;4.90;99.90;;;;;;4913991;29;20183;-48
2022/03/22 03:15:13;;;;;;;25.57;15.10;;;4.90;99.90;;;;;;4914005;29;20213;-48
2022/03/22 03:17:39;;;;;;;23.90;14.90;;;4.90;99.90;;;;;;4913680;29;20266;-48
2022/03/22 03:20:06;;;;;;;22.93;14.57;;;5.00;99.90;;;;;;4913949;29;20546;-48
2022/03/22 03:22:32;;;;;;;22.77;14.50;;;5.00;99.90;;;;;;4914121;29;21082;-49
2022/03/22 03:24:58;;;;;;;24.70;14.43;;;4.90;99.90;;;;;;4913351;29;20490;-48
2022/03/22 03:27:24;;;;;;;28.70;15.60;;;4.90;99.90;;;;;;4912959;29;20886;-44
2022/03/22 03:29:50;;;;;;;26.77;15.30;;;5.00;99.90;;;;;;4916054;29;20423;-44
2022/03/22 03:32:16;;;;;;;25.70;15.50;;;5.00;99.90;;;;;;4918047;29;20194;-44
2022/03/22 03:34:41;;;;;;;29.33;15.53;;;4.90;99.90;;;;;;4917824;29;20427;-44
2022/03/22 03:37:07;;;;;;;29.70;14.80;;;4.90;99.90;;;;;;4916985;29;20242;-44
2022/03/22 03:39:33;;;;;;;28.60;16.10;;;4.90;99.90;;;;;;4917898;29;20183;-44
2022/03/22 03:42:00;;;;;;;29.93;15.50;;;4.80;99.90;;;;;;4916605;29;20526;-47
2022/03/22 03:47:14;;;;;;;25.83;16.10;;;5.00;99.90;;;;;;4898673;29;20773;-48
2022/03/22 03:49:42;;;;;;;29.00;15.60;;;5.00;99.90;;;;;;4908560;29;20427;-49
2022/03/22 03:52:29;;;;;;;26.60;15.00;;;5.00;99.90;;;;;;4909416;29;20443;-48
2022/03/22 03:54:56;;;;;;;24.40;15.40;;;5.00;99.90;;;;;;4915831;29;20443;-48
2022/03/22 03:57:22;;;;;;;25.80;16.07;;;4.90;99.90;;;;;;4917175;29;20511;-48
2022/03/22 03:59:49;;;;;;;27.63;15.50;;;4.80;99.90;;;;;;4916879;29;20427;-44
2022/03/22 04:02:16;;;;;;;27.37;15.30;;;4.80;99.90;;;;;;4917021;29;20526;-48
2022/03/22 04:04:43;;;;;;;26.13;15.40;;;4.80;99.90;;;;;;4917161;29;20466;-44
2022/03/22 04:07:10;;;;;;;24.97;15.80;;;4.80;99.90;;;;;;4915732;29;20948;-48
2022/03/22 04:09:38;;;;;;;26.73;15.50;;;4.70;99.90;;;;;;4916895;29;20441;-48
2022/03/22 04:12:04;;;;;;;27.87;15.00;;;4.70;99.90;;;;;;4917107;29;20434;-48
2022/03/22 04:14:29;;;;;;;31.53;17.40;;;4.70;99.90;;;;;;4917514;29;20430;-48
2022/03/22 04:16:57;;;;;;;37.90;16.20;;;4.70;99.90;;;;;;4916745;29;20450;-48
2022/03/22 04:19:26;;;;;;;30.07;16.63;;;4.70;99.90;;;;;;4916788;29;20198;-48
2022/03/22 04:21:52;;;;;;;27.63;16.00;;;4.70;99.90;;;;;;4916931;29;20975;-48
2022/03/22 04:24:18;;;;;;;27.17;17.10;;;4.80;99.90;;;;;;4916139;29;20471;-49
2022/03/22 04:26:44;;;;;;;28.43;16.50;;;4.70;99.90;;;;;;4912904;29;20467;-48
2022/03/22 04:34:41;;;;;;;33.17;17.37;;;4.60;99.90;;;;;;4917277;29;20498;-43
2022/03/22 04:37:12;;;;;;;27.10;16.30;;;4.50;99.90;;;;;;4915829;29;20435;-45
2022/03/22 04:39:39;;;;;;;31.27;16.67;;;4.50;99.90;;;;;;4916276;29;20467;-44
2022/03/22 04:42:05;;;;;;;29.00;17.17;;;4.40;99.90;;;;;;4916465;29;21012;-43
2022/03/22 04:44:31;;;;;;;26.00;16.00;;;4.40;99.90;;;;;;4916949;29;20945;-44
2022/03/22 04:46:58;;;;;;;27.07;17.00;;;4.40;99.90;;;;;;4915958;29;20439;-43
2022/03/22 04:49:25;;;;;;;33.60;16.80;;;4.30;99.90;;;;;;4915963;29;20427;-43
2022/03/22 04:57:19;;;;;;;26.73;16.00;;;4.30;99.90;;;;;;4915162;29;20887;-44
2022/03/22 04:59:45;;;;;;;28.97;15.30;;;4.30;99.90;;;;;;4916561;29;20424;-43
2022/03/22 05:02:11;;;;;;;24.10;14.83;;;4.20;99.90;;;;;;4916290;29;21009;-44
2022/03/22 05:04:37;;;;;;;26.03;14.97;;;4.20;99.90;;;;;;4899413;29;20479;-43
2022/03/22 05:07:04;;;;;;;25.17;15.17;;;4.20;99.90;;;;;;4915555;29;20431;-44
2022/03/22 05:09:29;;;;;;;26.10;15.10;;;4.20;99.90;;;;;;4916146;29;20442;-43
2022/03/22 05:11:59;;;;;;;30.60;15.47;;;4.20;99.90;;;;;;4915688;29;20438;-43
2022/03/22 05:14:25;;;;;;;29.13;16.10;;;4.20;99.90;;;;;;4916256;29;20219;-44
2022/03/22 05:16:50;;;;;;;28.23;16.20;;;4.30;99.90;;;;;;4915636;29;20517;-44
2022/03/22 05:19:17;;;;;;;27.23;16.17;;;4.20;99.90;;;;;;4915939;29;20209;-44
2022/03/22 05:21:43;;;;;;;28.20;15.50;;;4.20;99.90;;;;;;4914828;29;20258;-44
2022/03/22 05:24:09;;;;;;;24.97;16.07;;;4.30;99.90;;;;;;4915718;29;20479;-44
2022/03/22 05:26:35;;;;;;;26.97;15.10;;;4.30;99.90;;;;;;4912641;29;20282;-43
2022/03/22 05:29:04;;;;;;;24.60;15.23;;;4.30;99.90;;;;;;4916051;29;20175;-44
2022/03/22 05:31:31;;;;;;;26.00;15.40;;;4.30;99.90;;;;;;4915415;29;20520;-43
2022/03/22 05:33:58;;;;;;;35.73;16.50;;;4.40;99.90;;;;;;4915724;29;20435;-43
2022/03/22 05:36:23;;;;;;;30.20;15.97;;;4.40;99.90;;;;;;4915000;29;20447;-44
2022/03/22 05:38:49;;;;;;;27.67;15.20;;;4.50;99.90;;;;;;4915410;29;20442;-43
2022/03/22 05:41:15;;;;;;;28.43;15.77;;;4.60;99.90;;;;;;4915015;29;20187;-44
2022/03/22 05:43:41;;;;;;;23.57;15.47;;;4.60;99.90;;;;;;4915189;29;20361;-44
2022/03/22 05:46:08;;;;;;;23.93;14.33;;;4.60;99.90;;;;;;4915196;29;20187;-44
2022/03/22 05:48:35;;;;;;;27.33;16.40;;;4.70;99.90;;;;;;4915324;29;20442;-44
2022/03/22 05:51:00;;;;;;;22.00;14.70;;;4.70;99.90;;;;;;4915209;29;20434;-42
2022/03/22 05:53:26;;;;;;;30.47;16.27;;;4.80;99.90;;;;;;4913943;29;20446;-43
2022/03/22 05:55:52;;;;;;;28.67;17.00;;;4.90;99.90;;;;;;4910804;29;20641;-44
2022/03/22 05:58:17;;;;;;;27.50;15.90;;;4.90;99.90;;;;;;4915011;29;20199;-43
2022/03/22 06:00:43;;;;;;;23.90;14.77;;;5.00;99.90;;;;;;4915404;29;20191;-43
2022/03/22 06:03:08;;;;;;;34.13;16.30;;;5.10;99.90;;;;;;4914446;29;20552;-44
2022/03/22 06:05:34;;;;;;;24.90;15.00;;;5.20;99.90;;;;;;4915254;29;20323;-44
2022/03/22 06:08:00;;;;;;;27.00;16.30;;;5.20;99.90;;;;;;4914923;29;20187;-44
2022/03/22 06:10:28;;;;;;;29.57;15.50;;;5.30;99.90;;;;;;4915407;29;20426;-44
2022/03/22 06:12:55;;;;;;;27.43;16.70;;;5.30;99.90;;;;;;4908359;29;20191;-43
2022/03/22 06:15:22;;;;;;;38.23;16.50;;;5.40;99.90;;;;;;4915406;29;20890;-43
2022/03/22 06:17:50;;;;;;;37.03;16.97;;;5.50;99.90;;;;;;4914527;29;20926;-43
2022/03/22 06:20:27;;;;;;;34.43;17.00;;;5.60;99.90;;;;;;4915080;29;20443;-43
2022/03/22 06:22:53;;;;;;;29.33;16.20;;;5.70;99.90;;;;;;4914568;29;20481;-44
2022/03/22 06:25:19;;;;;;;29.30;16.27;;;5.80;99.90;;;;;;4914268;29;20461;-44
2022/03/22 06:27:47;;;;;;;34.83;17.50;;;5.90;99.90;;;;;;4910218;29;20442;-49
2022/03/22 06:30:15;;;;;;;35.57;18.00;;;6.00;99.90;;;;;;4914864;29;20837;-48
2022/03/22 06:32:42;;;;;;;34.43;18.07;;;6.10;99.90;;;;;;4914384;29;20435;-48
2022/03/22 06:35:10;;;;;;;32.33;15.90;;;6.30;99.90;;;;;;4914264;29;20431;-48
2022/03/22 06:37:36;;;;;;;28.13;16.80;;;6.40;99.90;;;;;;4914169;29;20446;-48
2022/03/22 06:40:02;;;;;;;37.60;18.43;;;6.60;99.90;;;;;;4914683;29;20759;-48
2022/03/22 06:42:28;;;;;;;28.90;17.60;;;6.70;99.90;;;;;;4914195;29;20419;-49
2022/03/22 06:44:53;;;;;;;29.53;17.43;;;6.70;99.90;;;;;;4914124;29;20438;-49
2022/03/22 06:47:19;;;;;;;39.40;18.00;;;6.90;99.90;;;;;;4913616;29;20532;-49
2022/03/22 06:49:45;;;;;;;31.40;17.70;;;7.00;99.90;;;;;;4913992;29;20175;-48
2022/03/22 06:52:10;;;;;;;33.47;17.93;;;7.20;99.90;;;;;;4914620;29;20190;-49
2022/03/22 06:54:37;;;;;;;28.47;16.30;;;7.30;99.90;;;;;;4910287;29;20191;-48
2022/03/22 06:57:02;;;;;;;30.03;18.50;;;7.50;99.90;;;;;;4904008;29;20322;-48
2022/03/22 06:59:28;;;;;;;27.80;18.57;;;7.60;99.90;;;;;;4914401;29;20455;-49
2022/03/22 07:01:53;;;;;;;31.93;19.47;;;7.70;99.90;;;;;;4914219;29;20210;-49
2022/03/22 07:04:19;;;;;;;31.70;17.77;;;7.70;99.90;;;;;;4913845;29;21008;-49
2022/03/22 07:06:46;;;;;;;28.83;17.53;;;7.70;99.90;;;;;;4913659;29;20606;-49
2022/03/22 07:09:11;;;;;;;30.27;17.30;;;7.90;99.90;;;;;;4906217;29;20194;-49
2022/03/22 07:11:55;;;;;;;35.10;18.00;;;8.10;99.90;;;;;;4903890;29;20423;-49
2022/03/22 07:14:23;;;;;;;35.17;17.77;;;8.40;99.90;;;;;;4913345;29;20190;-50
2022/03/22 07:16:49;;;;;;;38.30;18.77;;;8.60;99.90;;;;;;4896183;29;20463;-49
2022/03/22 07:19:16;;;;;;;35.43;19.40;;;8.80;99.90;;;;;;4914269;29;20442;-50
2022/03/22 07:21:43;;;;;;;33.70;18.13;;;9.00;99.90;;;;;;4913022;29;20496;-49
2022/03/22 07:24:10;;;;;;;38.57;18.60;;;9.10;99.90;;;;;;4913719;29;20467;-50
2022/03/22 07:26:35;;;;;;;39.30;18.73;;;9.30;99.90;;;;;;4913035;29;20438;-49
2022/03/22 07:29:01;;;;;;;39.17;19.70;;;9.50;99.90;;;;;;4914172;29;20478;-48
2022/03/22 07:31:26;;;;;;;34.73;17.50;;;9.70;99.90;;;;;;4913360;29;20638;-50
2022/03/22 07:33:52;;;;;;;28.27;18.17;;;9.80;99.90;;;;;;4913563;29;20187;-50
2022/03/22 07:36:18;;;;;;;34.53;18.20;;;9.90;99.90;;;;;;4913047;29;20675;-49
2022/03/22 07:38:43;;;;;;;32.23;18.10;;;10.00;99.90;;;;;;4911684;29;20238;-50
2022/03/22 07:41:10;;;;;;;36.43;19.00;;;10.30;99.90;;;;;;4913954;29;20191;-49
2022/03/22 07:43:37;;;;;;;39.13;18.63;;;10.50;99.90;;;;;;4913341;29;20294;-48
2022/03/22 07:46:03;;;;;;;39.73;19.33;;;10.60;99.90;;;;;;4913176;29;21132;-49
2022/03/22 07:48:29;;;;;;;48.63;19.40;;;10.80;99.90;;;;;;4913244;29;20445;-49
2022/03/22 07:53:43;;;;;;;41.83;20.63;;;11.30;99.90;;;;;;4912094;29;20544;-49
2022/03/22 07:56:09;;;;;;;31.87;19.23;;;11.40;99.90;;;;;;4902459;29;20454;-48
2022/03/22 07:58:35;;;;;;;37.63;19.17;;;11.50;99.90;;;;;;4885553;29;20447;-49
2022/03/22 08:01:00;;;;;;;32.03;18.67;;;11.40;99.90;;;;;;4886873;29;20431;-50
2022/03/22 08:03:26;;;;;;;35.77;18.20;;;11.60;99.90;;;;;;4894230;29;20211;-50
2022/03/22 08:05:52;;;;;;;32.23;19.40;;;12.00;99.90;;;;;;4895644;29;20187;-44
2022/03/22 08:08:20;;;;;;;40.00;19.60;;;12.30;99.90;;;;;;4893939;29;20527;-45
2022/03/22 08:10:46;;;;;;;38.37;19.20;;;12.80;99.90;;;;;;4847802;29;20215;-44
2022/03/22 08:13:12;;;;;;;36.17;20.03;;;13.30;99.90;;;;;;4894200;29;20946;-45
2022/03/22 08:15:39;;;;;;;34.97;19.20;;;13.60;99.90;;;;;;4895511;29;20445;-44
2022/03/22 08:18:05;;;;;;;29.43;19.13;;;13.90;99.90;;;;;;4900291;29;20452;-43
2022/03/22 08:20:31;;;;;;;34.97;20.47;;;14.10;99.90;;;;;;4898526;29;20476;-43
2022/03/22 08:22:59;;;;;;;32.37;20.37;;;14.20;99.90;;;;;;4898534;29;20463;-43
2022/03/22 08:25:28;;;;;;;32.37;20.83;;;14.50;99.90;;;;;;4898429;29;20191;-43
2022/03/22 08:27:55;;;;;;;36.30;20.90;;;14.90;99.90;;;;;;4896961;29;20439;-44
2022/03/22 08:30:22;;;;;;;35.30;19.87;;;15.10;99.90;;;;;;4897373;29;20452;-43
2022/03/22 08:32:53;;;;;;;33.77;20.33;;;15.40;99.90;;;;;;4895837;29;20470;-43
2022/03/22 08:35:20;;;;;;;46.40;20.63;;;15.50;99.90;;;;;;4897761;29;20444;-44
2022/03/22 08:37:46;;;;;;;33.60;19.40;;;15.80;99.90;;;;;;4897303;29;20467;-44
2022/03/22 08:40:14;;;;;;;42.33;21.03;;;16.10;99.90;;;;;;4897190;29;20475;-43
2022/03/22 08:42:43;;;;;;;31.00;19.80;;;16.20;99.90;;;;;;4893519;29;20428;-43
2022/03/22 08:45:11;;;;;;;30.40;20.37;;;15.80;99.90;;;;;;4897718;29;20436;-43
2022/03/22 08:47:36;;;;;;;33.20;18.97;;;16.00;99.90;;;;;;4898717;29;20467;-44
2022/03/22 08:50:05;;;;;;;33.73;20.60;;;16.50;99.90;;;;;;4898069;29;20428;-43
2022/03/22 08:52:36;;;;;;;31.00;20.10;;;16.80;99.90;;;;;;4896960;29;20192;-45
2022/03/22 08:55:03;;;;;;;34.13;19.70;;;17.00;99.90;;;;;;4895399;29;20454;-45
2022/03/22 08:57:29;;;;;;;36.57;20.97;;;17.10;99.90;;;;;;4891700;29;20575;-44
2022/03/22 08:59:54;;;;;;;28.97;18.63;;;17.10;99.90;;;;;;4893837;29;20547;-43
2022/03/22 09:02:20;;;;;;;33.03;20.33;;;17.20;99.90;;;;;;4890087;29;20199;-44
2022/03/22 09:07:29;;;;;;;28.30;20.10;;;17.20;99.90;;;;;;4894060;29;20191;-44
2022/03/22 09:09:55;;;;;;;35.87;20.80;;;17.10;99.90;;;;;;4896757;29;20930;-44
2022/03/22 09:12:21;;;;;;;28.00;19.67;;;17.20;99.90;;;;;;4897434;29;20215;-42
2022/03/22 09:14:46;;;;;;;35.97;20.00;;;17.50;99.90;;;;;;4897404;29;20604;-43
2022/03/22 09:17:13;;;;;;;31.93;20.10;;;17.70;99.90;;;;;;4896705;29;20567;-43
2022/03/22 09:19:39;;;;;;;33.60;21.60;;;17.70;99.90;;;;;;4895865;29;20673;-45
2022/03/22 09:22:08;;;;;;;35.40;20.47;;;17.40;99.90;;;;;;4896970;29;20431;-44
2022/03/22 09:24:34;;;;;;;26.77;18.90;;;17.10;99.90;;;;;;4895945;29;20896;-43
2022/03/22 09:27:00;;;;;;;34.50;19.73;;;16.90;99.90;;;;;;4896501;29;20435;-44
2022/03/22 09:29:26;;;;;;;30.90;18.83;;;16.90;99.90;;;;;;4895944;29;20432;-45
2022/03/22 09:31:52;;;;;;;33.43;19.67;;;16.70;99.90;;;;;;4896930;29;20192;-45
2022/03/22 09:34:18;;;;;;;27.73;17.80;;;16.60;99.90;;;;;;4895349;29;20428;-44
2022/03/22 09:36:44;;;;;;;27.77;19.63;;;16.60;99.90;;;;;;4893595;29;20202;-44
2022/03/22 09:39:09;;;;;;;30.10;18.40;;;16.50;99.90;;;;;;4894443;29;20325;-44
2022/03/22 09:41:37;;;;;;;33.57;19.90;;;16.30;99.90;;;;;;4883268;29;20181;-44
2022/03/22 09:44:04;;;;;;;29.37;19.47;;;16.30;99.90;;;;;;4886152;29;20232;-44
2022/03/22 09:46:32;;;;;;;27.77;19.60;;;16.50;99.90;;;;;;4892029;29;20816;-45
2022/03/22 09:48:58;;;;;;;30.87;19.53;;;16.50;99.90;;;;;;4892908;29;20572;-44
2022/03/22 09:54:08;;;;;;;28.40;19.43;;;16.40;99.90;;;;;;4895073;29;20431;-44
2022/03/22 09:56:34;;;;;;;28.63;18.43;;;16.50;99.90;;;;;;4887495;29;20488;-44
2022/03/22 09:59:02;;;;;;;25.60;18.70;;;16.60;99.90;;;;;;4893097;29;20196;-45
2022/03/22 10:01:30;;;;;;;29.33;19.70;;;16.50;99.90;;;;;;4892128;29;20456;-44
2022/03/22 10:04:12;;;;;;;28.00;19.07;;;16.40;99.90;;;;;;4890585;29;20511;-44
2022/03/22 10:06:44;;;;;;;29.77;19.20;;;16.30;99.90;;;;;;4892157;29;20765;-45
2022/03/22 10:09:09;;;;;;;33.47;18.77;;;16.40;99.90;;;;;;4894330;29;20471;-45
2022/03/22 10:11:41;;;;;;;31.43;19.73;;;16.60;99.90;;;;;;4885294;29;20439;-44
2022/03/22 10:14:08;;;;;;;32.60;19.13;;;16.80;99.90;;;;;;4895987;29;20184;-44
2022/03/22 10:16:54;;;;;;;36.43;21.10;;;17.00;99.90;;;;;;4878312;29;20436;-45
2022/03/22 10:19:22;;;;;;;29.00;19.33;;;17.10;99.90;;;;;;4895725;29;20451;-44
2022/03/22 10:21:48;;;;;;;34.40;18.50;;;17.40;99.90;;;;;;4897173;29;20913;-43
2022/03/22 10:24:15;;;;;;;33.07;21.17;;;17.50;99.90;;;;;;4896544;29;20471;-43
2022/03/22 10:26:44;;;;;;;30.30;19.47;;;17.80;99.90;;;;;;4895067;29;20445;-48
2022/03/22 10:29:13;;;;;;;28.80;19.20;;;18.00;99.90;;;;;;4897547;29;20428;-47
2022/03/22 10:31:40;;;;;;;29.30;19.70;;;18.10;99.90;;;;;;4895627;29;20436;-48
2022/03/22 10:34:08;;;;;;;30.57;19.33;;;18.20;99.90;;;;;;4896134;29;20444;-47
2022/03/22 10:36:37;;;;;;;29.90;20.50;;;18.30;99.90;;;;;;4894874;29;20452;-48
2022/03/22 10:39:10;;;;;;;35.93;19.87;;;18.20;99.90;;;;;;4893584;29;20451;-47
2022/03/22 10:41:44;;;;;;;29.37;19.70;;;17.90;99.90;;;;;;4886128;29;20447;-47
2022/03/22 10:44:13;;;;;;;28.63;20.00;;;17.90;99.90;;;;;;4895767;29;20484;-48
2022/03/22 10:46:39;;;;;;;30.63;19.60;;;18.20;99.90;;;;;;4891401;29;20469;-48
2022/03/22 10:49:12;;;;;;;31.83;20.53;;;18.70;99.90;;;;;;4888380;29;20927;-48
2022/03/22 10:51:46;;;;;;;29.33;19.47;;;19.20;99.90;;;;;;4886122;29;20454;-48
2022/03/22 10:54:16;;;;;;;31.47;20.50;;;19.40;99.90;;;;;;4895028;29;20484;-48
2022/03/22 10:56:49;;;;;;;31.83;19.90;;;20.10;99.90;;;;;;4893551;29;20498;-48
2022/03/22 10:59:17;;;;;;;30.10;19.33;;;20.60;99.90;;;;;;4895610;29;20447;-48
2022/03/22 11:01:46;;;;;;;26.07;19.00;;;21.00;99.90;;;;;;4895304;29;20420;-47
2022/03/22 11:04:15;;;;;;;25.00;17.30;;;21.30;99.90;;;;;;4876862;29;20565;-48
2022/03/22 11:06:41;;;;;;;24.60;17.30;;;21.30;99.90;;;;;;4877446;29;20432;-48
2022/03/22 11:09:07;;;;;;;25.53;17.03;;;21.20;99.90;;;;;;4877338;29;20425;-48
2022/03/22 11:11:35;;;;;;;30.13;18.03;;;21.40;99.90;;;;;;4876599;29;20811;-48
2022/03/22 11:14:02;;;;;;;28.20;18.17;;;22.00;99.90;;;;;;4877347;29;20729;-48
2022/03/22 11:16:30;;;;;;;26.60;18.90;;;22.30;99.90;;;;;;4876706;29;20421;-48
2022/03/22 11:19:00;;;;;;;26.00;18.30;;;22.30;99.90;;;;;;4876914;29;20801;-48
2022/03/22 11:21:28;;;;;;;22.83;18.00;;;22.20;99.90;;;;;;4883283;29;20476;-47
2022/03/22 11:24:11;;;;;;;28.30;18.47;;;22.40;99.90;;;;;;4894600;29;20490;-48
2022/03/22 11:26:46;;;;;;;21.63;17.50;;;22.70;99.90;;;;;;4894916;29;20436;-48
2022/03/22 11:29:15;;;;;;;28.13;18.97;;;22.80;99.90;;;;;;4895134;29;20440;-48
2022/03/22 11:31:42;;;;;;;30.83;18.53;;;22.80;99.90;;;;;;4895176;29;20436;-45
2022/03/22 11:34:09;;;;;;;27.17;18.87;;;23.30;99.90;;;;;;4894397;29;20436;-45
2022/03/22 11:36:45;;;;;;;28.33;19.43;;;22.90;99.90;;;;;;4894769;29;20796;-44
2022/03/22 11:42:15;;;;;;;25.63;19.47;;;22.70;99.90;;;;;;4893977;29;20439;-44
2022/03/22 11:42:16;;;;;;;28.03;18.23;;;22.90;99.90;;;;;;4889125;29;20479;-49
2022/03/22 11:44:42;;;;;;;27.30;18.00;;;23.10;99.90;;;;;;4895315;29;20507;-48
2022/03/22 11:47:11;;;;;;;30.03;18.73;;;23.30;99.90;;;;;;4894822;29;20495;-48
2022/03/22 11:49:51;;;;;;;29.53;19.70;;;23.40;99.90;;;;;;4894936;29;20192;-49
2022/03/22 11:52:24;;;;;;;24.90;19.37;;;23.50;99.90;;;;;;4880305;29;20439;-48
2022/03/22 11:54:57;;;;;;;30.30;19.47;;;23.30;99.90;;;;;;4904698;29;21474;-48
2022/03/22 11:57:23;;;;;;;27.20;18.83;;;23.10;99.90;;;;;;4917110;29;20485;-48
2022/03/22 11:59:52;;;;;;;27.40;19.37;;;23.10;99.90;;;;;;4895510;29;20801;-49
2022/03/22 12:02:26;;;;;;;30.13;21.00;;;23.30;99.90;;;;;;4899140;29;20216;-50
2022/03/22 12:04:54;;;;;;;32.07;19.70;;;23.40;99.90;;;;;;4897312;29;20566;-49
2022/03/22 12:07:23;;;;;;;29.20;20.90;;;23.60;99.90;;;;;;4896200;29;20462;-49
2022/03/22 12:09:48;;;;;;;27.50;19.77;;;23.40;99.90;;;;;;4897663;29;20529;-49
2022/03/22 12:12:15;;;;;;;25.17;18.60;;;22.90;99.90;;;;;;4898256;29;20932;-49
2022/03/22 12:14:45;;;;;;;25.17;17.60;;;23.00;99.90;;;;;;4897711;29;20238;-49
2022/03/22 12:17:11;;;;;;;26.60;19.20;;;23.50;99.90;;;;;;4898115;29;20448;-50
2022/03/22 12:19:37;;;;;;;28.73;18.90;;;24.10;99.90;;;;;;4901137;29;20443;-50
2022/03/22 12:22:06;;;;;;;25.60;18.93;;;24.50;99.90;;;;;;4897962;29;20821;-51
2022/03/22 12:24:33;;;;;;;25.73;18.93;;;24.80;99.90;;;;;;4897675;29;20203;-51
2022/03/22 12:27:03;;;;;;;28.57;19.70;;;24.80;99.90;;;;;;4897629;29;20822;-50
2022/03/22 12:29:29;;;;;;;25.93;17.40;;;24.90;99.90;;;;;;4897940;29;20424;-48
2022/03/22 12:31:55;;;;;;;26.40;17.10;;;25.10;99.90;;;;;;4895969;29;20935;-50
2022/03/22 12:34:26;;;;;;;23.10;16.53;;;24.60;99.90;;;;;;4896771;29;20203;-50
2022/03/22 12:36:52;;;;;;;30.00;17.97;;;24.20;99.90;;;;;;4896488;29;20434;-48
2022/03/22 12:39:18;;;;;;;24.83;16.63;;;23.80;99.90;;;;;;4896946;29;20444;-48
2022/03/22 12:41:44;;;;;;;26.70;18.43;;;23.60;99.90;;;;;;4898134;29;20195;-48
2022/03/22 12:44:09;;;;;;;23.30;16.73;;;23.70;99.90;;;;;;4899777;29;20214;-49
2022/03/22 12:46:35;;;;;;;27.07;16.50;;;24.00;99.90;;;;;;4896698;29;20207;-50
2022/03/22 12:49:02;;;;;;;23.00;17.20;;;24.20;99.90;;;;;;4897920;29;20184;-51
2022/03/22 12:51:28;;;;;;;27.43;16.20;;;24.70;99.90;;;;;;4897585;29;20443;-51
2022/03/22 12:53:53;;;;;;;24.63;16.60;;;24.90;99.90;;;;;;4896689;29;20444;-50
2022/03/22 12:56:21;;;;;;;24.67;17.30;;;25.00;99.90;;;;;;4879716;29;20235;-49
2022/03/22 12:58:49;;;;;;;23.57;15.20;;;24.90;99.90;;;;;;4896841;29;20228;-50
2022/03/22 13:01:15;;;;;;;22.10;13.30;;;25.10;99.90;;;;;;4897213;29;20601;-50